Back to Top

Language: 

My Weather Underground Personal Weather Station Historical Data with Graphs...

Delerius Weather Station Historical Data
Daily Summary for January 25, 2017 Units:  Metric    English   Both
« Previous Day
Next Day »
Daily Weekly Monthly Yearly Custom
  High: Low: Average:
Temperature: 7.9 °C 2.3 °C 4.7 °C
Dew Point: 4.2 °C 0.9 °C 2.8 °C
Humidity: 96 % 71 % 88 %
Wind Speed: 19.3 km/h 0 km/h 7.7 km/h
Wind Gust: -1607.7 km/h - -
Wind:- - South
Pressure: 1025.3 hPa 1022.9 hPa -
Precipitation: 0 mm    
Historical Graphs
 
 
Tabular Data for January 25, 2017
Time Temperature Dew Point Pressure Wind Wind Speed Wind Gust Humidity Rainfall Rate (Hourly) solar Conditions
00:01 4.9 °C 4.2 °C 1024.6 hPa South 1.6 km/h -1607.7 km/h 95 % 0 mm 0 W/m2
00:06 4.9 °C 4.2 °C 1024.6 hPa South 1.6 km/h -1607.7 km/h 95 % 0 mm 0 W/m2
00:11 4.9 °C 4.2 °C 1024.6 hPa South 1.6 km/h -1607.7 km/h 95 % 0 mm 0 W/m2
00:16 4.9 °C 4.2 °C 1024.6 hPa South 1.6 km/h -1607.7 km/h 95 % 0 mm 0 W/m2
00:21 4.9 °C 4.2 °C 1024.6 hPa South 1.6 km/h -1607.7 km/h 95 % 0 mm 0 W/m2
00:26 4.7 °C 4 °C 1024.6 hPa Calm   -1607.7 km/h 95 % 0 mm 0 W/m2
00:31 4.7 °C 4 °C 1024.6 hPa Calm   -1607.7 km/h 95 % 0 mm 0 W/m2
00:36 4.7 °C 4 °C 1024.6 hPa Calm   -1607.7 km/h 95 % 0 mm 0 W/m2
00:41 4.7 °C 4 °C 1024.3 hPa South 1.6 km/h -1607.7 km/h 95 % 0 mm 0 W/m2
00:46 4.7 °C 4 °C 1024.3 hPa South 1.6 km/h -1607.7 km/h 95 % 0 mm 0 W/m2
00:51 4.7 °C 4 °C 1024.3 hPa South 1.6 km/h -1607.7 km/h 95 % 0 mm 0 W/m2
00:56 4.8 °C 4.1 °C 1024.3 hPa SSE 6.4 km/h -1607.7 km/h 95 % 0 mm 0 W/m2
01:01 4.8 °C 4.1 °C 1024.3 hPa SSE 6.4 km/h -1607.7 km/h 95 % 0 mm 0 W/m2
01:06 4.8 °C 4.1 °C 1024.3 hPa SSE 6.4 km/h -1607.7 km/h 95 % 0 mm 0 W/m2
01:11 4.7 °C 4 °C 1024.3 hPa South 6.4 km/h -1607.7 km/h 95 % 0 mm 0 W/m2
01:16 4.7 °C 4 °C 1024.3 hPa South 6.4 km/h -1607.7 km/h 95 % 0 mm 0 W/m2
01:21 4.7 °C 4 °C 1024.3 hPa South 6.4 km/h -1607.7 km/h 95 % 0 mm 0 W/m2
01:26 4.8 °C 4.1 °C 1024.3 hPa SSE 4.8 km/h -1607.7 km/h 95 % 0 mm 0 W/m2
01:31 4.8 °C 4.1 °C 1024.3 hPa SSE 4.8 km/h -1607.7 km/h 95 % 0 mm 0 W/m2
01:36 4.8 °C 4.1 °C 1024.3 hPa SSE 4.8 km/h -1607.7 km/h 95 % 0 mm 0 W/m2
01:41 4.8 °C 4.1 °C 1023.9 hPa SE 4.8 km/h -1607.7 km/h 95 % 0 mm 0 W/m2
01:46 4.8 °C 4.1 °C 1023.9 hPa SE 4.8 km/h -1607.7 km/h 95 % 0 mm 0 W/m2
01:51 4.8 °C 4.1 °C 1023.9 hPa SE 4.8 km/h -1607.7 km/h 95 % 0 mm 0 W/m2
01:56 4.7 °C 3.9 °C 1024.3 hPa SE 1.6 km/h -1607.7 km/h 95 % 0 mm 0 W/m2
02:01 4.7 °C 3.9 °C 1024.3 hPa SE 1.6 km/h -1607.7 km/h 95 % 0 mm 0 W/m2
02:06 4.7 °C 3.9 °C 1024.3 hPa SE 1.6 km/h -1607.7 km/h 95 % 0 mm 0 W/m2
02:11 4.7 °C 4 °C 1024.3 hPa SSW 4.8 km/h -1607.7 km/h 95 % 0 mm 0 W/m2
02:16 4.7 °C 4 °C 1024.3 hPa SSW 4.8 km/h -1607.7 km/h 95 % 0 mm 0 W/m2
02:21 4.7 °C 4 °C 1024.3 hPa SSW 4.8 km/h -1607.7 km/h 95 % 0 mm 0 W/m2
02:26 5 °C 4.1 °C 1024.3 hPa SW 6.4 km/h -1607.7 km/h 94 % 0 mm 0 W/m2
02:31 5 °C 4.1 °C 1024.3 hPa SW 6.4 km/h -1607.7 km/h 94 % 0 mm 0 W/m2
02:36 5 °C 4.1 °C 1024.3 hPa SW 6.4 km/h -1607.7 km/h 94 % 0 mm 0 W/m2
02:41 5.1 °C 4.1 °C 1024.3 hPa SW 4.8 km/h -1607.7 km/h 93 % 0 mm 0 W/m2
02:46 5.1 °C 4.1 °C 1024.3 hPa SW 4.8 km/h -1607.7 km/h 93 % 0 mm 0 W/m2
02:51 5.1 °C 4.1 °C 1024.3 hPa SW 4.8 km/h -1607.7 km/h 93 % 0 mm 0 W/m2
02:56 5 °C 3.9 °C 1024.3 hPa SSW 1.6 km/h -1607.7 km/h 93 % 0 mm 0 W/m2
03:01 5 °C 3.9 °C 1024.3 hPa SSW 1.6 km/h -1607.7 km/h 93 % 0 mm 0 W/m2
03:06 5 °C 3.9 °C 1024.3 hPa SSW 1.6 km/h -1607.7 km/h 93 % 0 mm 0 W/m2
03:11 4.7 °C 3.8 °C 1024.3 hPa Calm   -1607.7 km/h 94 % 0 mm 0 W/m2
03:16 4.7 °C 3.8 °C 1024.3 hPa Calm   -1607.7 km/h 94 % 0 mm 0 W/m2
03:21 4.7 °C 3.8 °C 1024.3 hPa Calm   -1607.7 km/h 94 % 0 mm 0 W/m2
03:26 4.5 °C 3.6 °C 1024.6 hPa ESE 1.6 km/h -1607.7 km/h 94 % 0 mm 0 W/m2
03:31 4.5 °C 3.6 °C 1024.6 hPa ESE 1.6 km/h -1607.7 km/h 94 % 0 mm 0 W/m2
03:36 4.5 °C 3.6 °C 1024.6 hPa ESE 1.6 km/h -1607.7 km/h 94 % 0 mm 0 W/m2
03:41 4.2 °C 3.2 °C 1024.6 hPa ESE 1.6 km/h -1607.7 km/h 93 % 0 mm 0 W/m2
03:46 4.2 °C 3.2 °C 1024.6 hPa ESE 1.6 km/h -1607.7 km/h 93 % 0 mm 0 W/m2
03:51 4.2 °C 3.2 °C 1024.6 hPa ESE 1.6 km/h -1607.7 km/h 93 % 0 mm 0 W/m2
03:56 4 °C 3.1 °C 1024.6 hPa SE 6.4 km/h -1607.7 km/h 94 % 0 mm 0 W/m2
04:01 4 °C 3.1 °C 1024.6 hPa SE 6.4 km/h -1607.7 km/h 94 % 0 mm 0 W/m2
04:06 4 °C 3.1 °C 1024.6 hPa SE 6.4 km/h -1607.7 km/h 94 % 0 mm 0 W/m2
04:11 4 °C 3.3 °C 1024.3 hPa South 3.2 km/h -1607.7 km/h 95 % 0 mm 0 W/m2
04:16 4 °C 3.3 °C 1024.3 hPa South 3.2 km/h -1607.7 km/h 95 % 0 mm 0 W/m2
04:21 4 °C 3.3 °C 1024.3 hPa South 3.2 km/h -1607.7 km/h 95 % 0 mm 0 W/m2
04:26 4.2 °C 3.4 °C 1024.3 hPa South 6.4 km/h -1607.7 km/h 95 % 0 mm 0 W/m2
04:31 4.2 °C 3.4 °C 1024.3 hPa South 6.4 km/h -1607.7 km/h 95 % 0 mm 0 W/m2
04:36 4.2 °C 3.4 °C 1024.3 hPa South 6.4 km/h -1607.7 km/h 95 % 0 mm 0 W/m2
04:41 4.1 °C 3.2 °C 1024.3 hPa SSE 4.8 km/h -1607.7 km/h 94 % 0 mm 0 W/m2
04:46 4.1 °C 3.2 °C 1024.3 hPa SSE 4.8 km/h -1607.7 km/h 94 % 0 mm 0 W/m2
04:51 4.1 °C 3.2 °C 1024.3 hPa SSE 4.8 km/h -1607.7 km/h 94 % 0 mm 0 W/m2
04:56 3.9 °C 3 °C 1024.3 hPa SE 6.4 km/h -1607.7 km/h 94 % 0 mm 0 W/m2
05:01 3.9 °C 3 °C 1024.3 hPa SE 6.4 km/h -1607.7 km/h 94 % 0 mm 0 W/m2
05:06 3.9 °C 3 °C 1024.3 hPa SE 6.4 km/h -1607.7 km/h 94 % 0 mm 0 W/m2
05:11 3.6 °C 2.7 °C 1024.3 hPa SE 4.8 km/h -1607.7 km/h 94 % 0 mm 0 W/m2
05:16 3.6 °C 2.7 °C 1024.3 hPa SE 4.8 km/h -1607.7 km/h 94 % 0 mm 0 W/m2
05:21 3.6 °C 2.7 °C 1024.3 hPa SE 4.8 km/h -1607.7 km/h 94 % 0 mm 0 W/m2
05:26 3.3 °C 2.6 °C 1024.3 hPa ESE 4.8 km/h -1607.7 km/h 95 % 0 mm 0 W/m2
05:31 3.3 °C 2.6 °C 1024.3 hPa ESE 4.8 km/h -1607.7 km/h 95 % 0 mm 0 W/m2
05:36 3.3 °C 2.6 °C 1024.3 hPa ESE 4.8 km/h -1607.7 km/h 95 % 0 mm 0 W/m2
05:41 3.2 °C 2.4 °C 1024.3 hPa East 4.8 km/h -1607.7 km/h 95 % 0 mm 0 W/m2
05:46 3.2 °C 2.4 °C 1024.3 hPa East 4.8 km/h -1607.7 km/h 95 % 0 mm 0 W/m2
05:51 3.2 °C 2.4 °C 1024.3 hPa East 4.8 km/h -1607.7 km/h 95 % 0 mm 0 W/m2
05:56 3.1 °C 2.3 °C 1024.3 hPa ESE 3.2 km/h -1607.7 km/h 95 % 0 mm 0 W/m2
06:01 3.1 °C 2.3 °C 1024.3 hPa ESE 3.2 km/h -1607.7 km/h 95 % 0 mm 0 W/m2
06:06 3.1 °C 2.3 °C 1024.3 hPa ESE 3.2 km/h -1607.7 km/h 95 % 0 mm 0 W/m2
06:11 2.9 °C 2.3 °C 1024.3 hPa SSE 4.8 km/h -1607.7 km/h 96 % 0 mm 0 W/m2
06:16 2.9 °C 2.3 °C 1024.3 hPa SSE 4.8 km/h -1607.7 km/h 96 % 0 mm 0 W/m2
06:21 2.9 °C 2.3 °C 1024.3 hPa SSE 4.8 km/h -1607.7 km/h 96 % 0 mm 0 W/m2
06:26 3.2 °C 2.4 °C 1024.3 hPa SSE 6.4 km/h -1607.7 km/h 95 % 0 mm 0 W/m2
06:31 3.2 °C 2.4 °C 1024.3 hPa SSE 6.4 km/h -1607.7 km/h 95 % 0 mm 0 W/m2
06:36 3.2 °C 2.4 °C 1024.3 hPa SSE 6.4 km/h -1607.7 km/h 95 % 0 mm 0 W/m2
06:41 3 °C 2.3 °C 1024.3 hPa SE 4.8 km/h -1607.7 km/h 95 % 0 mm 0 W/m2
06:46 3 °C 2.3 °C 1024.3 hPa SE 4.8 km/h -1607.7 km/h 95 % 0 mm 0 W/m2
06:51 3 °C 2.3 °C 1024.3 hPa SE 4.8 km/h -1607.7 km/h 95 % 0 mm 0 W/m2
06:56 2.7 °C 2.2 °C 1024.3 hPa South 1.6 km/h -1607.7 km/h 96 % 0 mm 0 W/m2
07:01 2.7 °C 2.2 °C 1024.3 hPa South 1.6 km/h -1607.7 km/h 96 % 0 mm 0 W/m2
07:06 2.7 °C 2.2 °C 1024.3 hPa South 1.6 km/h -1607.7 km/h 96 % 0 mm 0 W/m2
07:11 2.9 °C 2.4 °C 1024.3 hPa SSE 4.8 km/h -1607.7 km/h 96 % 0 mm 0 W/m2
07:16 2.9 °C 2.4 °C 1024.3 hPa SSE 4.8 km/h -1607.7 km/h 96 % 0 mm 0 W/m2
07:21 2.9 °C 2.4 °C 1024.3 hPa SSE 4.8 km/h -1607.7 km/h 96 % 0 mm 0 W/m2
07:26 2.9 °C 2.4 °C 1024.3 hPa SSW 4.8 km/h -1607.7 km/h 96 % 0 mm 0 W/m2
07:31 2.9 °C 2.4 °C 1024.3 hPa SSW 4.8 km/h -1607.7 km/h 96 % 0 mm 0 W/m2
07:36 2.9 °C 2.4 °C 1024.3 hPa SSW 4.8 km/h -1607.7 km/h 96 % 0 mm 0 W/m2
07:41 3.2 °C 2.6 °C 1024.3 hPa SSW 8 km/h -1607.7 km/h 96 % 0 mm 0 W/m2
07:46 3.2 °C 2.6 °C 1024.3 hPa SSW 8 km/h -1607.7 km/h 96 % 0 mm 0 W/m2
07:51 3.2 °C 2.6 °C 1024.3 hPa SSW 8 km/h -1607.7 km/h 96 % 0 mm 0 W/m2
07:56 3.6 °C 3.1 °C 1024.6 hPa SSW 9.7 km/h -1607.7 km/h 96 % 0 mm 2 W/m2
08:01 3.6 °C 3.1 °C 1024.6 hPa SSW 9.7 km/h -1607.7 km/h 96 % 0 mm 2 W/m2
08:06 3.6 °C 3.1 °C 1024.6 hPa SSW 9.7 km/h -1607.7 km/h 96 % 0 mm 2 W/m2
08:11 3.8 °C 3.1 °C 1024.6 hPa SSW 6.4 km/h -1607.7 km/h 95 % 0 mm 9 W/m2
08:16 3.8 °C 3.1 °C 1024.6 hPa SSW 6.4 km/h -1607.7 km/h 95 % 0 mm 9 W/m2
08:21 3.8 °C 3.1 °C 1024.6 hPa SSW 6.4 km/h -1607.7 km/h 95 % 0 mm 9 W/m2
08:26 3.9 °C 3 °C 1024.6 hPa West 1.6 km/h -1607.7 km/h 94 % 0 mm 15 W/m2
08:31 3.9 °C 3 °C 1024.6 hPa West 1.6 km/h -1607.7 km/h 94 % 0 mm 15 W/m2
08:36 3.9 °C 3 °C 1024.6 hPa West 1.6 km/h -1607.7 km/h 94 % 0 mm 15 W/m2
08:41 3.7 °C 2.8 °C 1024.9 hPa SE 3.2 km/h -1607.7 km/h 94 % 0 mm 22 W/m2
08:46 3.7 °C 2.8 °C 1024.9 hPa SE 3.2 km/h -1607.7 km/h 94 % 0 mm 22 W/m2
08:51 3.7 °C 2.8 °C 1024.9 hPa SE 3.2 km/h -1607.7 km/h 94 % 0 mm 22 W/m2
08:56 3.7 °C 2.8 °C 1024.9 hPa ESE 3.2 km/h -1607.7 km/h 94 % 0 mm 27 W/m2
09:01 3.7 °C 2.8 °C 1024.9 hPa ESE 3.2 km/h -1607.7 km/h 94 % 0 mm 27 W/m2
09:06 3.7 °C 2.8 °C 1024.9 hPa ESE 3.2 km/h -1607.7 km/h 94 % 0 mm 27 W/m2
09:11 3.7 °C 2.8 °C 1024.9 hPa SE 4.8 km/h -1607.7 km/h 94 % 0 mm 31 W/m2
09:16 3.7 °C 2.8 °C 1024.9 hPa SE 4.8 km/h -1607.7 km/h 94 % 0 mm 31 W/m2
09:21 3.7 °C 2.8 °C 1024.9 hPa SE 4.8 km/h -1607.7 km/h 94 % 0 mm 31 W/m2
09:26 3.8 °C 2.8 °C 1024.9 hPa SE 1.6 km/h -1607.7 km/h 93 % 0 mm 38 W/m2
09:31 3.8 °C 2.8 °C 1024.9 hPa SE 1.6 km/h -1607.7 km/h 93 % 0 mm 38 W/m2
09:36 3.8 °C 2.8 °C 1024.9 hPa SE 1.6 km/h -1607.7 km/h 93 % 0 mm 38 W/m2
09:41 4.1 °C 3.1 °C 1025.3 hPa SE 3.2 km/h -1607.7 km/h 93 % 0 mm 170 W/m2
09:46 4.1 °C 3.1 °C 1025.3 hPa SE 3.2 km/h -1607.7 km/h 93 % 0 mm 170 W/m2
09:51 4.1 °C 3.1 °C 1025.3 hPa SE 3.2 km/h -1607.7 km/h 93 % 0 mm 170 W/m2
09:56 4.8 °C 3.4 °C 1024.9 hPa SE 3.2 km/h -1607.7 km/h 91 % 0 mm 192 W/m2
10:01 4.8 °C 3.4 °C 1024.9 hPa SE 3.2 km/h -1607.7 km/h 91 % 0 mm 192 W/m2
10:06 4.8 °C 3.4 °C 1024.9 hPa SE 3.2 km/h -1607.7 km/h 91 % 0 mm 192 W/m2
10:11 5.3 °C 3.8 °C 1024.9 hPa ESE 3.2 km/h -1607.7 km/h 90 % 0 mm 216 W/m2
10:16 5.3 °C 3.8 °C 1024.9 hPa ESE 3.2 km/h -1607.7 km/h 90 % 0 mm 216 W/m2
10:21 5.3 °C 3.8 °C 1024.9 hPa ESE 3.2 km/h -1607.7 km/h 90 % 0 mm 216 W/m2
10:26 5.8 °C 4.1 °C 1024.9 hPa SE 1.6 km/h -1607.7 km/h 89 % 0 mm 241 W/m2
10:31 5.8 °C 4.1 °C 1024.9 hPa SE 1.6 km/h -1607.7 km/h 89 % 0 mm 241 W/m2
10:36 5.8 °C 4.1 °C 1024.9 hPa SE 1.6 km/h -1607.7 km/h 89 % 0 mm 241 W/m2
10:41 6.3 °C 3.8 °C 1025.3 hPa SSW 6.4 km/h -1607.7 km/h 84 % 0 mm 261 W/m2
10:46 6.3 °C 3.8 °C 1025.3 hPa SSW 6.4 km/h -1607.7 km/h 84 % 0 mm 261 W/m2
10:51 6.3 °C 3.8 °C 1025.3 hPa SSW 6.4 km/h -1607.7 km/h 84 % 0 mm 261 W/m2
10:56 6.7 °C 3.7 °C 1024.9 hPa SSW 11.3 km/h -1607.7 km/h 81 % 0 mm 277 W/m2
11:01 6.7 °C 3.7 °C 1024.9 hPa SSW 11.3 km/h -1607.7 km/h 81 % 0 mm 277 W/m2
11:06 6.7 °C 3.7 °C 1024.9 hPa SSW 11.3 km/h -1607.7 km/h 81 % 0 mm 277 W/m2
11:11 7 °C 3.8 °C 1024.9 hPa SSW 12.9 km/h -1607.7 km/h 80 % 0 mm 295 W/m2
11:16 7 °C 3.8 °C 1024.9 hPa SSW 12.9 km/h -1607.7 km/h 80 % 0 mm 295 W/m2
11:21 7 °C 3.8 °C 1024.9 hPa SSW 12.9 km/h -1607.7 km/h 80 % 0 mm 295 W/m2
11:26 7.2 °C 3.8 °C 1024.9 hPa SSW 14.5 km/h -1607.7 km/h 79 % 0 mm 305 W/m2
11:31 7.2 °C 3.8 °C 1024.9 hPa SSW 14.5 km/h -1607.7 km/h 79 % 0 mm 305 W/m2
11:36 7.2 °C 3.8 °C 1024.9 hPa SSW 14.5 km/h -1607.7 km/h 79 % 0 mm 305 W/m2
11:41 7.4 °C 3.8 °C 1024.9 hPa SSW 17.7 km/h -1607.7 km/h 78 % 0 mm 312 W/m2
11:46 7.4 °C 3.8 °C 1024.9 hPa SSW 17.7 km/h -1607.7 km/h 78 % 0 mm 312 W/m2
11:51 7.4 °C 3.8 °C 1024.9 hPa SSW 17.7 km/h -1607.7 km/h 78 % 0 mm 312 W/m2
11:56 7.4 °C 3.6 °C 1024.6 hPa SW 16.1 km/h -1607.7 km/h 77 % 0 mm 315 W/m2
12:01 7.4 °C 3.6 °C 1024.6 hPa SW 16.1 km/h -1607.7 km/h 77 % 0 mm 315 W/m2
12:06 7.4 °C 3.6 °C 1024.6 hPa SW 16.1 km/h -1607.7 km/h 77 % 0 mm 315 W/m2
12:11 7.6 °C 3.4 °C 1024.3 hPa SW 17.7 km/h -1607.7 km/h 75 % 0 mm 319 W/m2
12:16 7.6 °C 3.4 °C 1024.3 hPa SW 17.7 km/h -1607.7 km/h 75 % 0 mm 319 W/m2
12:21 7.6 °C 3.4 °C 1024.3 hPa SW 17.7 km/h -1607.7 km/h 75 % 0 mm 319 W/m2
12:26 7.8 °C 3.5 °C 1024.3 hPa SSW 16.1 km/h -1607.7 km/h 74 % 0 mm 320 W/m2
12:31 7.8 °C 3.5 °C 1024.3 hPa SSW 16.1 km/h -1607.7 km/h 74 % 0 mm 320 W/m2
12:36 7.8 °C 3.5 °C 1024.3 hPa SSW 16.1 km/h -1607.7 km/h 74 % 0 mm 320 W/m2
12:41 7.8 °C 3.5 °C 1024.3 hPa SSW 17.7 km/h -1607.7 km/h 74 % 0 mm 317 W/m2
12:46 7.8 °C 3.5 °C 1024.3 hPa SSW 17.7 km/h -1607.7 km/h 74 % 0 mm 317 W/m2
12:51 7.8 °C 3.5 °C 1024.3 hPa SSW 17.7 km/h -1607.7 km/h 74 % 0 mm 317 W/m2
12:56 7.8 °C 3.4 °C 1024.3 hPa SSW 19.3 km/h -1607.7 km/h 74 % 0 mm 311 W/m2
13:01 7.8 °C 3.4 °C 1024.3 hPa SSW 19.3 km/h -1607.7 km/h 74 % 0 mm 311 W/m2
13:06 7.8 °C 3.4 °C 1024.3 hPa SSW 19.3 km/h -1607.7 km/h 74 % 0 mm 311 W/m2
13:11 7.9 °C 3.2 °C 1023.9 hPa SW 17.7 km/h -1607.7 km/h 72 % 0 mm 304 W/m2
13:16 7.9 °C 3.2 °C 1023.9 hPa SW 17.7 km/h -1607.7 km/h 72 % 0 mm 304 W/m2
13:21 7.9 °C 3.2 °C 1023.9 hPa SW 17.7 km/h -1607.7 km/h 72 % 0 mm 304 W/m2
13:26 7.9 °C 3.2 °C 1023.9 hPa SSW 17.7 km/h -1607.7 km/h 72 % 0 mm 293 W/m2
13:31 7.9 °C 3.2 °C 1023.9 hPa SSW 17.7 km/h -1607.7 km/h 72 % 0 mm 293 W/m2
13:36 7.9 °C 3.2 °C 1023.9 hPa SSW 17.7 km/h -1607.7 km/h 72 % 0 mm 293 W/m2
13:41 7.8 °C 3.2 °C 1023.9 hPa SW 17.7 km/h -1607.7 km/h 73 % 0 mm 277 W/m2
13:46 7.8 °C 3.2 °C 1023.9 hPa SW 17.7 km/h -1607.7 km/h 73 % 0 mm 277 W/m2
13:51 7.8 °C 3.2 °C 1023.9 hPa SW 17.7 km/h -1607.7 km/h 73 % 0 mm 277 W/m2
13:56 7.8 °C 3.3 °C 1023.6 hPa SSW 17.7 km/h -1607.7 km/h 73 % 0 mm 261 W/m2
14:01 7.8 °C 3.3 °C 1023.6 hPa SSW 17.7 km/h -1607.7 km/h 73 % 0 mm 261 W/m2
14:06 7.8 °C 3.3 °C 1023.6 hPa SSW 17.7 km/h -1607.7 km/h 73 % 0 mm 261 W/m2
14:11 7.9 °C 3.3 °C 1023.6 hPa SW 16.1 km/h -1607.7 km/h 73 % 0 mm 243 W/m2
14:16 7.9 °C 3.3 °C 1023.6 hPa SW 16.1 km/h -1607.7 km/h 73 % 0 mm 243 W/m2
14:21 7.9 °C 3.3 °C 1023.6 hPa SW 16.1 km/h -1607.7 km/h 73 % 0 mm 243 W/m2
14:26 7.9 °C 3 °C 1023.6 hPa SSW 17.7 km/h -1607.7 km/h 71 % 0 mm 222 W/m2
14:31 7.9 °C 3 °C 1023.6 hPa SSW 17.7 km/h -1607.7 km/h 71 % 0 mm 222 W/m2
14:36 7.9 °C 3 °C 1023.6 hPa SSW 17.7 km/h -1607.7 km/h 71 % 0 mm 222 W/m2
14:41 7.9 °C 3.2 °C 1023.6 hPa SW 16.1 km/h -1607.7 km/h 72 % 0 mm 197 W/m2
14:46 7.9 °C 3.2 °C 1023.6 hPa SW 16.1 km/h -1607.7 km/h 72 % 0 mm 197 W/m2
14:51 7.9 °C 3.2 °C 1023.6 hPa SW 16.1 km/h -1607.7 km/h 72 % 0 mm 197 W/m2
14:56 7.9 °C 2.9 °C 1023.6 hPa SW 14.5 km/h -1607.7 km/h 71 % 0 mm 172 W/m2
15:01 7.9 °C 2.9 °C 1023.6 hPa SW 14.5 km/h -1607.7 km/h 71 % 0 mm 172 W/m2
15:06 7.9 °C 2.9 °C 1023.6 hPa SW 14.5 km/h -1607.7 km/h 71 % 0 mm 172 W/m2
15:11 7.7 °C 3.1 °C 1023.6 hPa SW 16.1 km/h -1607.7 km/h 73 % 0 mm 144 W/m2
15:16 7.7 °C 3.1 °C 1023.6 hPa SW 16.1 km/h -1607.7 km/h 73 % 0 mm 144 W/m2
15:21 7.7 °C 3.1 °C 1023.6 hPa SW 16.1 km/h -1607.7 km/h 73 % 0 mm 144 W/m2
15:26 7.3 °C 3.1 °C 1023.6 hPa SW 8 km/h -1607.7 km/h 75 % 0 mm 92 W/m2
15:31 7.3 °C 3.1 °C 1023.6 hPa SW 8 km/h -1607.7 km/h 75 % 0 mm 92 W/m2
15:36 7.3 °C 3.1 °C 1023.6 hPa SW 8 km/h -1607.7 km/h 75 % 0 mm 92 W/m2
15:41 7 °C 3.2 °C 1023.2 hPa SSW 11.3 km/h -1607.7 km/h 77 % 0 mm 26 W/m2
15:46 7 °C 3.2 °C 1023.2 hPa SSW 11.3 km/h -1607.7 km/h 77 % 0 mm 26 W/m2
15:51 7 °C 3.2 °C 1023.2 hPa SSW 11.3 km/h -1607.7 km/h 77 % 0 mm 26 W/m2
15:56 6.7 °C 3.2 °C 1023.2 hPa SW 6.4 km/h -1607.7 km/h 78 % 0 mm 21 W/m2
16:01 6.7 °C 3.2 °C 1023.2 hPa SW 6.4 km/h -1607.7 km/h 78 % 0 mm 21 W/m2
16:06 6.7 °C 3.2 °C 1023.2 hPa SW 6.4 km/h -1607.7 km/h 78 % 0 mm 21 W/m2
16:11 6.5 °C 3.1 °C 1023.2 hPa SW 4.8 km/h -1607.7 km/h 79 % 0 mm 17 W/m2
16:16 6.5 °C 3.1 °C 1023.2 hPa SW 4.8 km/h -1607.7 km/h 79 % 0 mm 17 W/m2
16:21 6.5 °C 3.1 °C 1023.2 hPa SW 4.8 km/h -1607.7 km/h 79 % 0 mm 17 W/m2
16:26 6.2 °C 3.2 °C 1023.2 hPa South 4.8 km/h -1607.7 km/h 81 % 0 mm 10 W/m2
16:31 6.2 °C 3.2 °C 1023.2 hPa South 4.8 km/h -1607.7 km/h 81 % 0 mm 10 W/m2
16:36 6.2 °C 3.2 °C 1023.2 hPa South 4.8 km/h -1607.7 km/h 81 % 0 mm 10 W/m2
16:41 5.9 °C 3.1 °C 1023.2 hPa SSW 4.8 km/h -1607.7 km/h 82 % 0 mm 3 W/m2
16:46 5.9 °C 3.1 °C 1023.2 hPa SSW 4.8 km/h -1607.7 km/h 82 % 0 mm 3 W/m2
16:51 5.9 °C 3.1 °C 1023.2 hPa SSW 4.8 km/h -1607.7 km/h 82 % 0 mm 3 W/m2
16:56 5.6 °C 2.9 °C 1023.2 hPa SSE 1.6 km/h -1607.7 km/h 83 % 0 mm 0 W/m2
17:01 5.6 °C 2.9 °C 1023.2 hPa SSE 1.6 km/h -1607.7 km/h 83 % 0 mm 0 W/m2
17:06 5.6 °C 2.9 °C 1023.2 hPa SSE 1.6 km/h -1607.7 km/h 83 % 0 mm 0 W/m2
17:11 5.2 °C 2.9 °C 1023.2 hPa SSE 1.6 km/h -1607.7 km/h 85 % 0 mm 0 W/m2
17:16 5.2 °C 2.9 °C 1023.2 hPa SSE 1.6 km/h -1607.7 km/h 85 % 0 mm 0 W/m2
17:21 5.2 °C 2.9 °C 1023.2 hPa SSE 1.6 km/h -1607.7 km/h 85 % 0 mm 0 W/m2
17:26 4.9 °C 2.6 °C 1023.2 hPa SSW 1.6 km/h -1607.7 km/h 85 % 0 mm 0 W/m2
17:31 4.9 °C 2.6 °C 1023.2 hPa SSW 1.6 km/h -1607.7 km/h 85 % 0 mm 0 W/m2
17:36 4.9 °C 2.6 °C 1023.2 hPa SSW 1.6 km/h -1607.7 km/h 85 % 0 mm 0 W/m2
17:41 4.5 °C 2.5 °C 1023.2 hPa SSW 3.2 km/h -1607.7 km/h 87 % 0 mm 0 W/m2
17:46 4.5 °C 2.5 °C 1023.2 hPa SSW 3.2 km/h -1607.7 km/h 87 % 0 mm 0 W/m2
17:51 4.5 °C 2.5 °C 1023.2 hPa SSW 3.2 km/h -1607.7 km/h 87 % 0 mm 0 W/m2
17:56 4.1 °C 2.4 °C 1023.6 hPa SE 6.4 km/h -1607.7 km/h 89 % 0 mm 0 W/m2
18:01 4.1 °C 2.4 °C 1023.6 hPa SE 6.4 km/h -1607.7 km/h 89 % 0 mm 0 W/m2
18:06 4.1 °C 2.4 °C 1023.6 hPa SE 6.4 km/h -1607.7 km/h 89 % 0 mm 0 W/m2
18:11 3.7 °C 2.2 °C 1023.6 hPa SE 6.4 km/h -1607.7 km/h 90 % 0 mm 0 W/m2
18:16 3.7 °C 2.2 °C 1023.6 hPa SE 6.4 km/h -1607.7 km/h 90 % 0 mm 0 W/m2
18:21 3.7 °C 2.2 °C 1023.6 hPa SE 6.4 km/h -1607.7 km/h 90 % 0 mm 0 W/m2
18:26 3.4 °C 2.1 °C 1023.6 hPa SSE 6.4 km/h -1607.7 km/h 91 % 0 mm 0 W/m2
18:31 3.4 °C 2.1 °C 1023.6 hPa SSE 6.4 km/h -1607.7 km/h 91 % 0 mm 0 W/m2
18:36 3.4 °C 2.1 °C 1023.6 hPa SSE 6.4 km/h -1607.7 km/h 91 % 0 mm 0 W/m2
18:41 3.1 °C 1.9 °C 1023.6 hPa SSE 11.3 km/h -1607.7 km/h 92 % 0 mm 0 W/m2
18:46 3.1 °C 1.9 °C 1023.6 hPa SSE 11.3 km/h -1607.7 km/h 92 % 0 mm 0 W/m2
18:51 3.1 °C 1.9 °C 1023.6 hPa SSE 11.3 km/h -1607.7 km/h 92 % 0 mm 0 W/m2
18:56 3.1 °C 1.9 °C 1023.6 hPa SSE 11.3 km/h -1607.7 km/h 92 % 0 mm 0 W/m2
19:01 3.1 °C 1.9 °C 1023.6 hPa SSE 11.3 km/h -1607.7 km/h 92 % 0 mm 0 W/m2
19:06 3.1 °C 1.9 °C 1023.6 hPa SSE 11.3 km/h -1607.7 km/h 92 % 0 mm 0 W/m2
19:11 3.3 °C 1.9 °C 1023.6 hPa South 12.9 km/h -1607.7 km/h 91 % 0 mm 0 W/m2
19:16 3.3 °C 1.9 °C 1023.6 hPa South 12.9 km/h -1607.7 km/h 91 % 0 mm 0 W/m2
19:21 3.3 °C 1.9 °C 1023.6 hPa South 12.9 km/h -1607.7 km/h 91 % 0 mm 0 W/m2
19:26 3.3 °C 1.8 °C 1023.6 hPa SSW 11.3 km/h -1607.7 km/h 90 % 0 mm 0 W/m2
19:31 3.3 °C 1.8 °C 1023.6 hPa SSW 11.3 km/h -1607.7 km/h 90 % 0 mm 0 W/m2
19:36 3.3 °C 1.8 °C 1023.6 hPa SSW 11.3 km/h -1607.7 km/h 90 % 0 mm 0 W/m2
19:41 3.3 °C 1.8 °C 1023.6 hPa SSW 11.3 km/h -1607.7 km/h 90 % 0 mm 0 W/m2
19:46 3.3 °C 1.8 °C 1023.6 hPa SSW 11.3 km/h -1607.7 km/h 90 % 0 mm 0 W/m2
19:51 3.3 °C 1.8 °C 1023.6 hPa SSW 11.3 km/h -1607.7 km/h 90 % 0 mm 0 W/m2
19:56 3.3 °C 1.6 °C 1023.6 hPa SSW 9.7 km/h -1607.7 km/h 89 % 0 mm 0 W/m2
20:01 3.3 °C 1.6 °C 1023.6 hPa SSW 9.7 km/h -1607.7 km/h 89 % 0 mm 0 W/m2
20:06 3.3 °C 1.6 °C 1023.6 hPa SSW 9.7 km/h -1607.7 km/h 89 % 0 mm 0 W/m2
20:11 3.3 °C 1.6 °C 1023.9 hPa SSW 3.2 km/h -1607.7 km/h 89 % 0 mm 0 W/m2
20:16 3.3 °C 1.6 °C 1023.9 hPa SSW 3.2 km/h -1607.7 km/h 89 % 0 mm 0 W/m2
20:21 3.3 °C 1.6 °C 1023.9 hPa SSW 3.2 km/h -1607.7 km/h 89 % 0 mm 0 W/m2
20:26 3.3 °C 1.6 °C 1023.9 hPa South 9.7 km/h -1607.7 km/h 89 % 0 mm 0 W/m2
20:31 3.3 °C 1.6 °C 1023.9 hPa South 9.7 km/h -1607.7 km/h 89 % 0 mm 0 W/m2
20:36 3.3 °C 1.6 °C 1023.9 hPa South 9.7 km/h -1607.7 km/h 89 % 0 mm 0 W/m2
20:41 3.3 °C 1.5 °C 1023.9 hPa South 9.7 km/h -1607.7 km/h 88 % 0 mm 0 W/m2
20:46 3.3 °C 1.5 °C 1023.9 hPa South 9.7 km/h -1607.7 km/h 88 % 0 mm 0 W/m2
20:51 3.3 °C 1.5 °C 1023.9 hPa South 9.7 km/h -1607.7 km/h 88 % 0 mm 0 W/m2
20:56 3.2 °C 1.4 °C 1023.9 hPa South 9.7 km/h -1607.7 km/h 88 % 0 mm 0 W/m2
21:01 3.2 °C 1.4 °C 1023.9 hPa South 9.7 km/h -1607.7 km/h 88 % 0 mm 0 W/m2
21:06 3.2 °C 1.4 °C 1023.9 hPa South 9.7 km/h -1607.7 km/h 88 % 0 mm 0 W/m2
21:11 3.1 °C 1.3 °C 1023.9 hPa South 8 km/h -1607.7 km/h 88 % 0 mm 0 W/m2
21:16 3.1 °C 1.3 °C 1023.9 hPa South 8 km/h -1607.7 km/h 88 % 0 mm 0 W/m2
21:21 3.1 °C 1.3 °C 1023.9 hPa South 8 km/h -1607.7 km/h 88 % 0 mm 0 W/m2
21:26 3.1 °C 1.3 °C 1023.6 hPa SSW 6.4 km/h -1607.7 km/h 88 % 0 mm 0 W/m2
21:31 3.1 °C 1.3 °C 1023.6 hPa SSW 6.4 km/h -1607.7 km/h 88 % 0 mm 0 W/m2
21:36 3.1 °C 1.3 °C 1023.6 hPa SSW 6.4 km/h -1607.7 km/h 88 % 0 mm 0 W/m2
21:41 3.2 °C 1.6 °C 1023.6 hPa South 8 km/h -1607.7 km/h 89 % 0 mm 0 W/m2
21:46 3.2 °C 1.6 °C 1023.6 hPa South 8 km/h -1607.7 km/h 89 % 0 mm 0 W/m2
21:51 3.2 °C 1.6 °C 1023.6 hPa South 8 km/h -1607.7 km/h 89 % 0 mm 0 W/m2
21:56 3.2 °C 1.6 °C 1023.6 hPa South 8 km/h -1607.7 km/h 89 % 0 mm 0 W/m2
22:01 3.2 °C 1.6 °C 1023.6 hPa South 8 km/h -1607.7 km/h 89 % 0 mm 0 W/m2
22:06 3.2 °C 1.6 °C 1023.6 hPa South 8 km/h -1607.7 km/h 89 % 0 mm 0 W/m2
22:11 3 °C 1.4 °C 1023.6 hPa SSE 9.7 km/h -1607.7 km/h 89 % 0 mm 0 W/m2
22:16 3 °C 1.4 °C 1023.6 hPa SSE 9.7 km/h -1607.7 km/h 89 % 0 mm 0 W/m2
22:21 3 °C 1.4 °C 1023.6 hPa SSE 9.7 km/h -1607.7 km/h 89 % 0 mm 0 W/m2
22:26 2.8 °C 1.3 °C 1023.6 hPa SSE 9.7 km/h -1607.7 km/h 90 % 0 mm 0 W/m2
22:31 2.8 °C 1.3 °C 1023.6 hPa SSE 9.7 km/h -1607.7 km/h 90 % 0 mm 0 W/m2
22:36 2.8 °C 1.3 °C 1023.6 hPa SSE 9.7 km/h -1607.7 km/h 90 % 0 mm 0 W/m2
22:41 2.7 °C 1.1 °C 1023.6 hPa South 11.3 km/h -1607.7 km/h 89 % 0 mm 0 W/m2
22:46 2.7 °C 1.1 °C 1023.6 hPa South 11.3 km/h -1607.7 km/h 89 % 0 mm 0 W/m2
22:51 2.7 °C 1.1 °C 1023.6 hPa South 11.3 km/h -1607.7 km/h 89 % 0 mm 0 W/m2
22:56 2.6 °C 1.1 °C 1023.6 hPa SSE 12.9 km/h -1607.7 km/h 90 % 0 mm 0 W/m2
23:01 2.6 °C 1.1 °C 1023.6 hPa SSE 12.9 km/h -1607.7 km/h 90 % 0 mm 0 W/m2
23:06 2.6 °C 1.1 °C 1023.6 hPa SSE 12.9 km/h -1607.7 km/h 90 % 0 mm 0 W/m2
23:11 2.5 °C 1.2 °C 1023.2 hPa SSE 12.9 km/h -1607.7 km/h 91 % 0 mm 0 W/m2
23:16 2.5 °C 1.2 °C 1023.2 hPa SSE 12.9 km/h -1607.7 km/h 91 % 0 mm 0 W/m2
23:21 2.5 °C 1.2 °C 1023.2 hPa SSE 12.9 km/h -1607.7 km/h 91 % 0 mm 0 W/m2
23:26 2.3 °C 1 °C 1023.2 hPa SSE 11.3 km/h -1607.7 km/h 91 % 0 mm 0 W/m2
23:31 2.3 °C 1 °C 1023.2 hPa SSE 11.3 km/h -1607.7 km/h 91 % 0 mm 0 W/m2
23:36 2.3 °C 1 °C 1023.2 hPa SSE 11.3 km/h -1607.7 km/h 91 % 0 mm 0 W/m2
23:41 2.3 °C 0.9 °C 1022.9 hPa SSE 8 km/h -1607.7 km/h 91 % 0 mm 0 W/m2
23:46 2.3 °C 0.9 °C 1022.9 hPa SSE 8 km/h -1607.7 km/h 91 % 0 mm 0 W/m2
23:51 2.3 °C 0.9 °C 1022.9 hPa SSE 8 km/h -1607.7 km/h 91 % 0 mm 0 W/m2
23:56 2.3 °C 1 °C 1022.9 hPa South 6.4 km/h -1607.7 km/h 91 % 0 mm 0 W/m2
Delerius-Weather
Compliments of Weather Underground - 2.25 mb

Data updates at regular intervals.